Freeburg, Minnesota
Current Conditions -  °F | °C
As of 1:53 AM on Friday 31 Oct 2014 (Local Time) from KLSE Reporting Station
Broken Clouds Broken Clouds  
Wind Chill: 25°   Ceiling: 4800
Heat Index: 36°   Visibility: 10mi
Dew Point: 18°   Wind: 21mph
Humidity: 48%   Direction: 340°NNW
Pressure: 30.26"   Gusts: 28mph
Location:  43.6028°N, 91.445°W
Report Text: KLSE 310653Z AUTO 34018G24KT 10SM BKN048 BKN060 02/M08 A3026 RMK AO2 PK WND 35028/0637 SLP254 T00221078 $
Loading
Personal Weather Stations






























Interactive Weather Map
Tropical Storm Tracking
New forecast layout! Learn more

10-Day Weather Forecast

Advertisements
Track Severe Weather on mobile